Johns Island, South Carolina
Current Conditions -  °F | °C
As of 8:56 PM on Wednesday 24 Dec 2014 (Local Time) from KCHS Reporting Station
Broken Clouds Broken Clouds  
Wind Chill: 63°   Ceiling: 11000
Heat Index: 63°   Visibility: 10mi
Dew Point: 62°   Wind: 9mph
Humidity: 97%   Direction: 210°SSW
Pressure: 29.77"   Gusts: NA
Location:  32.79°N, 80.11°W
Report Text: KCHS 250156Z 21008KT 10SM SCT007 BKN110 17/17 A2977 RMK AO2 SLP080 T01720167
Loading
Personal Weather Stations






























Interactive Weather Map New forecast layout! Learn more

10-Day Weather Forecast

Advertisements
Track Severe Weather on mobile